createdAt,value
2023-03-17T06:41:17.488Z,1.73
2023-03-17T06:42:20.507Z,1.84
2023-03-17T06:43:24.968Z,2.01
2023-03-17T06:44:27.894Z,2.22
2023-03-17T06:45:33.143Z,2.44
2023-03-17T06:46:36.809Z,2.64
2023-03-17T06:47:39.954Z,2.82
2023-03-17T06:48:43.593Z,3.00
2023-03-17T06:49:46.603Z,3.18
2023-03-17T06:50:50.168Z,3.33
2023-03-17T06:51:53.258Z,3.47
2023-03-17T06:52:56.574Z,3.58
2023-03-17T06:53:59.398Z,3.69
2023-03-17T06:55:02.317Z,3.78
2023-03-17T06:56:05.726Z,3.85
2023-03-17T06:57:09.662Z,3.91
2023-03-17T06:58:13.233Z,3.98
2023-03-17T06:59:16.090Z,4.06
2023-03-17T07:00:20.985Z,4.12
2023-03-17T07:01:24.097Z,4.18
2023-03-17T07:02:27.472Z,4.23
2023-03-17T07:03:31.150Z,4.30
2023-03-17T07:04:37.669Z,4.35
2023-03-17T07:05:40.563Z,4.42
2023-03-17T07:06:43.380Z,4.48
2023-03-17T07:07:46.470Z,4.53
2023-03-17T07:08:50.914Z,4.58
2023-03-17T07:09:54.148Z,4.62
2023-03-17T07:10:57.949Z,4.66
2023-03-17T07:12:05.132Z,4.70
2023-03-17T07:13:08.679Z,4.75
2023-03-17T07:14:11.534Z,4.79
2023-03-17T07:15:14.820Z,4.84
2023-03-17T07:16:19.734Z,4.89
2023-03-17T07:17:22.903Z,4.92
2023-03-17T07:18:26.464Z,4.96
2023-03-17T07:19:31.266Z,5.01
2023-03-17T07:20:34.223Z,5.05
2023-03-17T07:21:37.023Z,5.10
2023-03-17T07:22:40.675Z,5.13
2023-03-17T07:23:43.979Z,5.18
2023-03-17T07:24:49.084Z,5.23
2023-03-17T07:25:52.733Z,5.27
2023-03-17T07:26:55.518Z,5.30
2023-03-17T07:27:58.936Z,5.34
2023-03-17T07:29:01.842Z,5.38
2023-03-17T07:30:05.829Z,5.42
2023-03-17T07:31:09.589Z,5.46
2023-03-17T07:32:13.027Z,5.51
2023-03-17T07:33:17.520Z,5.55
2023-03-17T07:34:20.514Z,5.59
2023-03-17T07:35:23.599Z,5.61
2023-03-17T07:36:26.532Z,5.63
2023-03-17T07:37:29.412Z,5.64
2023-03-17T07:38:32.267Z,5.65
2023-03-17T07:39:35.453Z,5.66
2023-03-17T07:40:39.041Z,5.69
2023-03-17T07:41:44.096Z,5.72
2023-03-17T07:42:47.031Z,5.73
2023-03-17T07:43:50.035Z,5.74
2023-03-17T07:44:53.078Z,5.76
2023-03-17T07:45:56.391Z,5.78
2023-03-17T07:46:59.477Z,5.79
2023-03-17T07:48:05.121Z,5.82
2023-03-17T07:49:09.380Z,5.84
2023-03-17T07:50:12.547Z,5.86
2023-03-17T07:51:19.078Z,5.89
2023-03-17T07:52:21.964Z,5.91
2023-03-17T07:53:25.420Z,5.93
2023-03-17T07:54:29.274Z,5.96
2023-03-17T07:55:33.175Z,5.99
2023-03-17T07:56:36.332Z,6.01
2023-03-17T07:57:40.200Z,6.02
2023-03-17T07:58:43.396Z,6.04
2023-03-17T07:59:46.265Z,6.08
2023-03-17T08:00:49.171Z,6.09
2023-03-17T08:01:53.233Z,6.09
2023-03-17T08:03:09.472Z,6.10
2023-03-17T08:04:14.669Z,6.13
2023-03-17T08:05:18.368Z,6.15
2023-03-17T08:06:21.796Z,6.17
2023-03-17T08:07:24.667Z,6.15
2023-03-17T08:08:28.287Z,6.15
2023-03-17T08:09:32.009Z,6.16
2023-03-17T08:10:35.412Z,6.17
2023-03-17T08:11:39.151Z,6.15
2023-03-17T08:12:42.804Z,6.11
2023-03-17T08:13:45.748Z,6.08
2023-03-17T08:14:48.783Z,6.08
2023-03-17T08:15:52.829Z,6.08
2023-03-17T08:16:55.937Z,6.09
2023-03-17T08:17:59.094Z,6.09
2023-03-17T08:19:04.148Z,6.09
2023-03-17T08:20:07.905Z,6.09
2023-03-17T08:21:10.884Z,6.09
2023-03-17T08:22:13.732Z,6.11
2023-03-17T08:23:18.003Z,6.12
2023-03-17T08:24:20.928Z,6.12
2023-03-17T08:25:24.785Z,6.13
2023-03-17T08:26:27.952Z,6.16
2023-03-17T08:27:33.644Z,6.16
2023-03-17T08:28:37.501Z,6.16
2023-03-17T08:29:40.544Z,6.16
2023-03-17T08:30:44.874Z,6.18
2023-03-17T08:31:47.938Z,6.20
2023-03-17T08:32:51.395Z,6.23
2023-03-17T08:33:56.657Z,6.27
2023-03-17T08:35:00.467Z,6.31
2023-03-17T08:36:09.422Z,6.34
2023-03-17T08:37:12.317Z,6.38
2023-03-17T08:38:15.323Z,6.44
2023-03-17T08:39:19.625Z,6.50
2023-03-17T08:40:23.144Z,6.60
2023-03-17T08:41:27.539Z,6.68
2023-03-17T08:42:30.822Z,6.75
2023-03-17T08:43:34.903Z,6.81
2023-03-17T08:44:37.928Z,6.87
2023-03-17T08:45:40.911Z,6.93
2023-03-17T08:46:43.905Z,6.98
2023-03-17T08:47:47.806Z,7.03
2023-03-17T08:48:52.816Z,7.08
2023-03-17T08:49:56.330Z,7.12
2023-03-17T08:50:59.331Z,7.12
2023-03-17T08:52:03.090Z,7.11
2023-03-17T08:53:05.979Z,7.12
2023-03-17T08:54:08.960Z,7.14
2023-03-17T08:55:13.804Z,7.14
2023-03-17T08:56:17.127Z,7.17
2023-03-17T08:57:20.799Z,7.18
2023-03-17T08:58:24.738Z,7.14
2023-03-17T08:59:27.722Z,7.11
2023-03-17T09:00:30.871Z,7.12
2023-03-17T09:01:34.931Z,7.14
2023-03-17T09:02:39.895Z,7.16
2023-03-17T09:03:43.827Z,7.20
2023-03-17T09:04:47.176Z,7.27
2023-03-17T09:05:51.475Z,7.33
2023-03-17T09:07:03.454Z,7.39
2023-03-17T09:08:07.671Z,7.45
2023-03-17T09:09:11.046Z,7.51
2023-03-17T09:10:14.882Z,7.56
2023-03-17T09:11:20.490Z,7.58
2023-03-17T09:12:23.316Z,7.63
2023-03-17T09:13:26.213Z,7.67
2023-03-17T09:14:31.743Z,7.72
2023-03-17T09:15:37.036Z,7.75
2023-03-17T09:16:40.194Z,7.78
2023-03-17T09:17:43.972Z,7.80
2023-03-17T09:18:46.967Z,7.85
2023-03-17T09:19:49.905Z,7.90
2023-03-17T09:20:53.237Z,7.96
2023-03-17T09:21:56.076Z,8.01
2023-03-17T09:22:59.584Z,7.99
2023-03-17T09:24:02.838Z,7.93
2023-03-17T09:25:06.069Z,7.89
2023-03-17T09:26:10.367Z,7.87
2023-03-17T09:27:13.452Z,7.83
2023-03-17T09:28:17.392Z,7.81
2023-03-17T09:29:20.417Z,7.82
2023-03-17T09:30:23.454Z,7.84
2023-03-17T09:31:26.805Z,7.86
2023-03-17T09:32:29.704Z,7.88
2023-03-17T09:33:32.608Z,7.91
2023-03-17T09:34:35.919Z,7.95
2023-03-17T09:35:40.284Z,7.97
2023-03-17T09:36:43.588Z,7.98
2023-03-17T09:37:48.094Z,8.01
2023-03-17T09:38:51.267Z,8.04
2023-03-17T09:39:54.061Z,8.04
2023-03-17T09:41:23.974Z,8.07
2023-03-17T09:42:27.381Z,8.10
2023-03-17T09:44:05.197Z,8.12
2023-03-17T09:45:17.664Z,8.18
2023-03-17T09:46:36.595Z,8.22
2023-03-17T09:47:48.999Z,8.25
2023-03-17T09:49:10.825Z,8.26
2023-03-17T09:50:19.374Z,8.28
2023-03-17T09:51:22.267Z,8.33
2023-03-17T09:52:30.401Z,8.36
2023-03-17T09:53:46.355Z,8.40
2023-03-17T09:54:50.120Z,8.45
2023-03-17T09:55:57.894Z,8.50
2023-03-17T09:57:12.600Z,8.53
2023-03-17T09:58:28.213Z,8.57
2023-03-17T09:59:38.361Z,8.63
2023-03-17T10:00:41.565Z,8.66
2023-03-17T10:01:44.454Z,8.68
2023-03-17T10:02:48.569Z,8.68
2023-03-17T10:03:51.715Z,8.71
2023-03-17T10:04:55.077Z,8.72
2023-03-17T10:06:13.440Z,8.72
2023-03-17T10:07:23.485Z,8.74
2023-03-17T10:08:32.463Z,8.78
2023-03-17T10:09:46.139Z,8.83
2023-03-17T10:11:15.037Z,8.90
2023-03-17T10:12:45.550Z,8.97
2023-03-17T10:14:03.701Z,8.86
2023-03-17T10:15:19.142Z,8.71
2023-03-17T10:16:34.774Z,8.60
2023-03-17T10:17:42.802Z,8.52
2023-03-17T10:18:58.524Z,8.46
2023-03-17T10:20:34.738Z,8.49
2023-03-17T10:21:48.521Z,8.65
2023-03-17T10:22:58.284Z,8.80
2023-03-17T10:24:04.206Z,8.95
2023-03-17T10:25:17.614Z,9.07
2023-03-17T10:26:43.796Z,9.19
2023-03-17T10:27:55.761Z,9.29
2023-03-17T10:28:59.989Z,9.39
2023-03-17T10:30:04.278Z,9.50
2023-03-17T10:31:30.080Z,9.51
2023-03-17T10:32:37.869Z,9.41
2023-03-17T10:33:40.990Z,9.30
2023-03-17T10:34:44.413Z,9.18
2023-03-17T10:35:47.785Z,9.06
2023-03-17T10:36:55.016Z,8.96
2023-03-17T10:38:13.489Z,8.89
2023-03-17T10:39:20.309Z,8.82
2023-03-17T10:40:30.616Z,8.79
2023-03-17T10:41:36.538Z,8.75
2023-03-17T10:42:53.492Z,8.73
2023-03-17T10:43:57.869Z,8.70
2023-03-17T10:45:29.964Z,8.69
2023-03-17T10:46:33.215Z,8.65
2023-03-17T10:47:44.720Z,8.62
2023-03-17T10:49:13.063Z,8.56
2023-03-17T10:50:23.275Z,8.50
2023-03-17T10:51:35.518Z,8.46
2023-03-17T10:52:42.319Z,8.39
2023-03-17T10:53:52.429Z,8.32
2023-03-17T10:54:55.321Z,8.24
2023-03-17T10:56:06.972Z,8.17
2023-03-17T10:57:14.053Z,8.11
2023-03-17T10:58:29.199Z,8.08
2023-03-17T10:59:39.509Z,8.06
2023-03-17T11:01:05.831Z,8.07
2023-03-17T11:02:24.389Z,8.08
2023-03-17T11:03:34.344Z,8.11
2023-03-17T11:04:42.635Z,8.15
2023-03-17T11:06:05.578Z,8.18
2023-03-17T11:07:19.907Z,8.22
2023-03-17T11:08:23.471Z,8.27
2023-03-17T11:09:30.677Z,8.31
2023-03-17T11:10:38.186Z,8.34
2023-03-17T11:11:47.670Z,8.34
2023-03-17T11:13:00.371Z,8.35
2023-03-17T11:14:10.590Z,8.37
2023-03-17T11:15:17.763Z,8.37
2023-03-17T11:16:24.911Z,8.38
2023-03-17T11:17:51.665Z,8.40
2023-03-17T11:18:58.111Z,8.41
2023-03-17T11:20:19.214Z,8.42
2023-03-17T11:21:32.604Z,8.43
2023-03-17T11:22:41.053Z,8.43
2023-03-17T11:23:55.037Z,8.43
2023-03-17T11:25:23.541Z,8.43
2023-03-17T11:26:54.453Z,8.44
2023-03-17T11:28:07.929Z,8.45
2023-03-17T11:29:39.571Z,8.48
2023-03-17T11:30:54.767Z,8.50
2023-03-17T11:32:18.892Z,8.53
2023-03-17T11:33:42.601Z,8.59
2023-03-17T11:34:59.997Z,8.66
2023-03-17T11:36:15.774Z,8.72
2023-03-17T11:37:48.083Z,8.83
2023-03-17T11:39:22.842Z,8.96
2023-03-17T11:40:36.099Z,9.13
2023-03-17T11:41:51.133Z,9.31
2023-03-17T11:43:15.544Z,9.48
2023-03-17T11:45:00.033Z,9.63
2023-03-17T11:46:11.132Z,9.77
2023-03-17T11:47:20.670Z,9.84
2023-03-17T11:48:44.845Z,9.92
2023-03-17T11:50:07.460Z,9.99
2023-03-17T11:51:30.482Z,10.02
2023-03-17T11:53:01.987Z,10.04
2023-03-17T11:54:15.958Z,10.05
2023-03-17T11:55:34.827Z,10.06
2023-03-17T11:56:54.311Z,10.10
2023-03-17T11:58:02.291Z,10.17
2023-03-17T11:59:12.871Z,10.23
2023-03-17T12:00:34.920Z,10.29
2023-03-17T12:02:15.964Z,10.33
2023-03-17T12:03:38.846Z,10.29
2023-03-17T12:05:05.108Z,10.22
2023-03-17T12:06:26.038Z,10.17
2023-03-17T12:07:51.423Z,10.16
2023-03-17T12:09:07.859Z,10.16
2023-03-17T12:10:18.567Z,10.15
2023-03-17T12:11:28.258Z,10.17
2023-03-17T12:12:38.202Z,10.18
2023-03-17T12:13:49.823Z,10.23
2023-03-17T12:14:54.582Z,10.29
2023-03-17T12:16:06.179Z,10.36
2023-03-17T12:17:21.010Z,10.46
2023-03-17T12:18:31.164Z,10.61
2023-03-17T12:19:44.740Z,10.72
2023-03-17T12:21:01.687Z,10.82
2023-03-17T12:22:20.016Z,10.93
2023-03-17T12:23:40.623Z,11.05
2023-03-17T12:25:02.927Z,11.16
2023-03-17T12:26:12.917Z,11.21
2023-03-17T12:27:23.380Z,11.21
2023-03-17T12:28:37.803Z,11.21
2023-03-17T12:29:47.511Z,11.19
2023-03-17T12:30:57.158Z,11.17
2023-03-17T12:32:35.981Z,11.10
2023-03-17T12:33:58.903Z,11.03
2023-03-17T12:35:32.008Z,11.01
2023-03-17T12:36:36.864Z,11.02
2023-03-17T12:37:40.515Z,11.03
2023-03-17T12:38:57.063Z,11.04
2023-03-17T12:40:20.347Z,11.00
2023-03-17T12:41:26.571Z,10.96
2023-03-17T12:42:52.378Z,10.93
2023-03-17T12:44:26.329Z,10.90
2023-03-17T12:45:41.267Z,10.85
2023-03-17T12:47:23.322Z,10.84
2023-03-17T12:48:54.373Z,10.84
2023-03-17T12:50:44.914Z,10.87
2023-03-17T12:52:06.473Z,10.93
2023-03-17T12:53:21.518Z,10.97
2023-03-17T12:54:33.255Z,10.98
2023-03-17T12:55:36.935Z,11.01
2023-03-17T12:56:46.507Z,11.04
2023-03-17T12:58:02.242Z,11.09
2023-03-17T12:59:08.814Z,11.16
2023-03-17T13:00:28.353Z,11.22
2023-03-17T13:01:33.385Z,11.29
2023-03-17T13:02:38.852Z,11.41
2023-03-17T13:04:01.054Z,11.54
2023-03-17T13:05:14.846Z,11.72
2023-03-17T13:06:21.428Z,11.93
2023-03-17T13:07:27.151Z,12.15
2023-03-17T13:08:33.595Z,12.38
2023-03-17T13:09:44.540Z,12.59
2023-03-17T13:10:50.491Z,12.82
2023-03-17T13:11:54.049Z,13.03
2023-03-17T13:13:07.175Z,13.25
2023-03-17T13:14:27.121Z,13.54
2023-03-17T13:15:51.203Z,13.86
2023-03-17T13:17:05.433Z,14.19
2023-03-17T13:18:13.953Z,14.51
2023-03-17T13:19:31.234Z,14.77
2023-03-17T13:20:41.248Z,15.01
2023-03-17T13:21:49.277Z,15.21
2023-03-17T13:23:15.000Z,15.40
2023-03-17T13:24:21.045Z,15.64
2023-03-17T13:25:31.255Z,15.87
2023-03-17T13:26:53.015Z,16.08
2023-03-17T13:28:12.189Z,16.29
2023-03-17T13:29:25.711Z,16.44
2023-03-17T13:30:29.490Z,16.61
2023-03-17T13:31:36.714Z,16.77
2023-03-17T13:32:39.982Z,16.99
2023-03-17T13:33:53.465Z,17.17
2023-03-17T13:35:02.404Z,17.36
2023-03-17T13:36:42.009Z,17.52
2023-03-17T13:38:14.110Z,17.75
2023-03-17T13:39:30.436Z,17.96
2023-03-17T13:40:53.852Z,18.15
2023-03-17T13:42:17.633Z,18.28
2023-03-17T13:43:33.728Z,18.35
2023-03-17T13:44:52.224Z,18.36
2023-03-17T13:46:15.455Z,18.17
2023-03-17T13:47:34.959Z,17.95
2023-03-17T13:48:38.065Z,17.78
2023-03-17T13:49:41.040Z,17.63
2023-03-17T13:50:43.879Z,17.50
2023-03-17T13:52:10.496Z,17.45
2023-03-17T13:53:14.912Z,17.44
2023-03-17T13:54:34.668Z,17.44
2023-03-17T13:55:42.561Z,17.48
2023-03-17T13:56:45.619Z,17.40
2023-03-17T13:58:16.187Z,17.22
2023-03-17T13:59:32.635Z,16.95
2023-03-17T14:00:41.606Z,16.71
2023-03-17T14:01:55.917Z,16.48
2023-03-17T14:03:10.554Z,16.26
2023-03-17T14:04:20.877Z,16.09
2023-03-17T14:05:29.483Z,15.99
2023-03-17T14:06:37.340Z,15.92
2023-03-17T14:08:01.703Z,15.88
2023-03-17T14:09:16.595Z,15.87
2023-03-17T14:10:23.528Z,15.90
2023-03-17T14:11:35.503Z,15.93
2023-03-17T14:12:56.737Z,15.91
2023-03-17T14:14:26.023Z,15.86
2023-03-17T14:15:47.963Z,15.74
2023-03-17T14:17:02.828Z,15.67
2023-03-17T14:18:16.426Z,15.66
2023-03-17T14:19:27.007Z,15.76
2023-03-17T14:20:30.026Z,15.92
2023-03-17T14:21:33.954Z,16.05
2023-03-17T14:22:45.033Z,16.09
2023-03-17T14:24:00.556Z,16.04
2023-03-17T14:25:03.841Z,15.93
2023-03-17T14:26:10.923Z,15.80
2023-03-17T14:27:15.198Z,15.65
2023-03-17T14:28:24.228Z,15.49
2023-03-17T14:29:32.290Z,15.31
2023-03-17T14:30:36.412Z,15.14
2023-03-17T15:30:21.958Z,9.98
2023-03-17T15:31:28.058Z,9.93
2023-03-17T15:32:31.546Z,9.90
2023-03-17T15:33:36.798Z,9.86
2023-03-17T15:34:38.509Z,9.83
2023-03-17T15:35:40.195Z,9.79
2023-03-17T15:36:43.508Z,9.77
2023-03-17T15:37:45.219Z,9.74
2023-03-17T15:38:46.722Z,9.72
2023-03-17T15:39:49.362Z,9.69
2023-03-17T15:40:50.839Z,9.66
2023-03-17T15:41:52.359Z,9.65
2023-03-17T15:42:53.803Z,9.63
2023-03-17T15:43:56.114Z,9.61
2023-03-17T15:44:59.557Z,9.59
2023-03-17T15:46:07.655Z,9.57
2023-03-17T15:47:15.027Z,9.55
2023-03-17T15:48:24.748Z,9.53
2023-03-17T15:49:27.010Z,9.50
2023-03-17T15:50:31.722Z,9.48
2023-03-17T15:51:33.337Z,9.46
2023-03-17T15:52:34.826Z,9.43
2023-03-17T15:53:36.525Z,9.40
2023-03-17T15:54:38.380Z,9.38
2023-03-17T15:55:40.254Z,9.35
2023-03-17T15:56:42.783Z,9.33
2023-03-17T15:57:53.872Z,9.30
2023-03-17T15:58:56.407Z,9.27
2023-03-17T15:59:57.835Z,9.26
2023-03-17T16:00:59.456Z,9.24
2023-03-17T16:02:01.336Z,9.21
2023-03-17T16:03:16.372Z,9.19
2023-03-17T16:04:18.306Z,9.17
2023-03-17T16:05:25.887Z,9.17
2023-03-17T16:06:27.410Z,9.14
2023-03-17T16:07:30.329Z,9.12
2023-03-17T16:08:31.802Z,9.10
2023-03-17T16:09:34.777Z,9.08
2023-03-17T16:10:36.677Z,9.06
2023-03-17T16:11:40.347Z,9.03
2023-03-17T16:12:42.013Z,9.01
2023-03-17T16:13:43.534Z,8.99
2023-03-17T16:14:45.143Z,8.97
2023-03-17T16:15:54.413Z,8.95
2023-03-17T16:16:56.251Z,8.92
2023-03-17T16:18:00.932Z,8.90
2023-03-17T16:19:05.275Z,8.88
2023-03-17T16:20:18.396Z,8.86
2023-03-17T16:21:20.721Z,8.82
2023-03-17T16:22:36.313Z,8.80
2023-03-17T16:23:37.895Z,8.77
2023-03-17T16:24:39.641Z,8.74
2023-03-17T16:25:41.991Z,8.72
2023-03-17T16:26:43.484Z,8.71
2023-03-17T16:27:45.879Z,8.68
2023-03-17T16:28:48.470Z,8.67
2023-03-17T16:29:49.928Z,8.65
2023-03-17T16:30:53.796Z,8.62
2023-03-17T16:31:55.264Z,8.60
2023-03-17T16:33:01.554Z,8.58
2023-03-17T16:34:03.040Z,8.56
2023-03-17T16:35:13.700Z,8.54
2023-03-17T16:36:17.773Z,8.51
2023-03-17T16:37:19.191Z,8.49
2023-03-17T16:38:23.774Z,8.46
2023-03-17T16:39:25.730Z,8.45
2023-03-17T16:40:33.408Z,8.41
2023-03-17T16:41:34.978Z,8.39
2023-03-17T16:42:36.533Z,8.36
2023-03-17T16:43:42.870Z,8.34
2023-03-17T16:44:44.455Z,8.32
2023-03-17T16:45:45.913Z,8.30
2023-03-17T16:46:47.756Z,8.28
2023-03-17T16:47:49.584Z,8.26
2023-03-17T16:48:51.158Z,8.23
2023-03-17T16:49:52.873Z,8.22
2023-03-17T16:50:55.860Z,8.20
2023-03-17T16:51:57.312Z,8.18
2023-03-17T16:52:59.591Z,8.15
2023-03-17T16:54:01.080Z,8.14
2023-03-17T16:55:02.592Z,8.12
2023-03-17T16:56:12.917Z,8.11
2023-03-17T16:57:15.009Z,8.08
2023-03-17T16:58:19.817Z,8.07
2023-03-17T16:59:24.846Z,8.06
2023-03-17T17:00:30.657Z,8.04
2023-03-17T17:01:33.739Z,8.02
2023-03-17T17:02:35.799Z,8.01
2023-03-17T17:03:37.819Z,7.99
2023-03-17T17:04:42.430Z,7.98
2023-03-17T17:05:44.590Z,7.97
2023-03-17T17:06:46.110Z,7.95
2023-03-17T17:07:49.247Z,7.94
2023-03-17T17:08:51.525Z,7.91
2023-03-17T17:09:53.050Z,7.90
2023-03-17T17:10:56.636Z,7.89
2023-03-17T17:11:58.138Z,7.87
2023-03-17T17:13:01.379Z,7.84
2023-03-17T17:14:03.319Z,7.81
2023-03-17T17:15:07.857Z,7.80
2023-03-17T17:16:34.772Z,7.76
2023-03-17T17:17:39.346Z,7.74
2023-03-17T17:18:40.786Z,7.72
2023-03-17T17:19:42.305Z,7.69
2023-03-17T17:20:45.573Z,7.68
2023-03-17T17:21:47.877Z,7.66
2023-03-17T17:22:50.408Z,7.64
2023-03-17T17:23:55.534Z,7.62
2023-03-17T17:24:56.977Z,7.60
2023-03-17T17:25:58.674Z,7.58
2023-03-17T17:27:00.381Z,7.56
2023-03-17T17:28:05.699Z,7.54
2023-03-17T17:29:07.281Z,7.54
2023-03-17T17:30:12.696Z,7.52
2023-03-17T17:31:16.736Z,7.51
2023-03-17T17:32:19.274Z,7.49
2023-03-17T17:33:21.525Z,7.48
2023-03-17T17:34:27.699Z,7.48
2023-03-17T17:35:32.795Z,7.46
2023-03-17T17:36:36.826Z,7.45
2023-03-17T17:37:39.182Z,7.44
2023-03-17T17:38:41.020Z,7.42
2023-03-17T17:39:42.813Z,7.42
2023-03-17T17:40:45.182Z,7.41
2023-03-17T17:41:46.970Z,7.39
2023-03-17T17:42:49.121Z,7.39
2023-03-17T17:43:54.377Z,7.38
2023-03-17T17:44:57.887Z,7.37
2023-03-17T17:46:00.471Z,7.36
2023-03-17T17:47:02.654Z,7.35
2023-03-17T17:48:04.639Z,7.34
2023-03-17T17:49:10.311Z,7.33
2023-03-17T17:50:18.171Z,7.32
2023-03-17T17:51:19.851Z,7.31
2023-03-17T17:52:21.568Z,7.31
2023-03-17T17:53:31.044Z,7.30
2023-03-17T17:55:00.481Z,7.29
2023-03-17T17:59:52.647Z,7.24
2023-03-17T18:00:57.338Z,7.22
2023-03-17T18:02:01.180Z,7.21
2023-03-17T18:03:03.875Z,7.20
2023-03-17T18:04:06.940Z,7.19
2023-03-17T18:05:10.522Z,7.18
2023-03-17T18:06:13.062Z,7.17
2023-03-17T18:07:15.167Z,7.15
2023-03-17T18:08:18.674Z,7.14
2023-03-17T18:09:31.847Z,7.13
2023-03-17T18:10:43.414Z,7.11
2023-03-17T18:20:47.666Z,7.04
2023-03-17T18:23:46.897Z,7.03
2023-03-17T18:24:49.334Z,7.02
2023-03-17T18:26:13.495Z,7.02
2023-03-17T18:27:22.741Z,7.01
2023-03-17T18:30:12.940Z,6.99
2023-03-17T18:31:34.086Z,6.98
2023-03-17T18:32:36.616Z,6.96
2023-03-17T18:33:40.927Z,6.94
2023-03-17T18:34:47.198Z,6.93
2023-03-17T18:35:51.545Z,6.92
2023-03-17T18:36:55.128Z,6.92
2023-03-17T18:37:57.365Z,6.90
2023-03-17T18:38:58.848Z,6.89
2023-03-17T18:40:13.481Z,6.87
2023-03-17T18:41:17.194Z,6.86
2023-03-17T18:42:18.803Z,6.86
